sensor_id;sensor_type;location;lat;lon;timestamp;temperature;humidity
68051;DHT22;54839;51.364;7.246;2023-06-14T00:00:13;17.40;80.60
68051;DHT22;54839;51.364;7.246;2023-06-14T00:02:40;17.30;81.10
68051;DHT22;54839;51.364;7.246;2023-06-14T00:05:06;17.40;81.50
68051;DHT22;54839;51.364;7.246;2023-06-14T00:07:37;17.40;82.90
68051;DHT22;54839;51.364;7.246;2023-06-14T00:10:03;17.30;83.10
68051;DHT22;54839;51.364;7.246;2023-06-14T00:12:30;17.30;83.60
68051;DHT22;54839;51.364;7.246;2023-06-14T00:14:56;17.30;84.80
68051;DHT22;54839;51.364;7.246;2023-06-14T00:17:22;17.20;86.00
68051;DHT22;54839;51.364;7.246;2023-06-14T00:19:48;17.10;86.60
68051;DHT22;54839;51.364;7.246;2023-06-14T00:22:13;17.00;87.20
68051;DHT22;54839;51.364;7.246;2023-06-14T00:24:39;16.90;88.70
68051;DHT22;54839;51.364;7.246;2023-06-14T00:27:04;16.90;89.60
68051;DHT22;54839;51.364;7.246;2023-06-14T00:29:30;16.70;90.20
68051;DHT22;54839;51.364;7.246;2023-06-14T00:31:56;16.60;90.70
68051;DHT22;54839;51.364;7.246;2023-06-14T00:34:21;16.60;90.60
68051;DHT22;54839;51.364;7.246;2023-06-14T00:36:47;16.80;91.60
68051;DHT22;54839;51.364;7.246;2023-06-14T00:39:12;17.00;91.50
68051;DHT22;54839;51.364;7.246;2023-06-14T00:41:39;17.20;91.40
68051;DHT22;54839;51.364;7.246;2023-06-14T00:44:05;16.90;91.50
68051;DHT22;54839;51.364;7.246;2023-06-14T00:46:30;16.70;92.10
68051;DHT22;54839;51.364;7.246;2023-06-14T00:48:56;16.60;92.60
68051;DHT22;54839;51.364;7.246;2023-06-14T00:51:24;16.40;93.40
68051;DHT22;54839;51.364;7.246;2023-06-14T00:53:50;16.40;93.40
68051;DHT22;54839;51.364;7.246;2023-06-14T00:56:16;16.40;93.50
68051;DHT22;54839;51.364;7.246;2023-06-14T00:58:42;16.30;93.70
68051;DHT22;54839;51.364;7.246;2023-06-14T01:01:08;16.40;94.10
68051;DHT22;54839;51.364;7.246;2023-06-14T01:03:34;16.30;94.50
68051;DHT22;54839;51.364;7.246;2023-06-14T01:06:19;16.30;94.60
68051;DHT22;54839;51.364;7.246;2023-06-14T01:11:31;16.30;95.10
68051;DHT22;54839;51.364;7.246;2023-06-14T01:13:59;16.40;95.50
68051;DHT22;54839;51.364;7.246;2023-06-14T01:16:26;16.40;95.10
68051;DHT22;54839;51.364;7.246;2023-06-14T01:18:53;16.40;96.10
68051;DHT22;54839;51.364;7.246;2023-06-14T01:21:25;16.60;96.10
68051;DHT22;54839;51.364;7.246;2023-06-14T01:23:51;16.70;95.80
68051;DHT22;54839;51.364;7.246;2023-06-14T01:26:19;17.00;95.00
68051;DHT22;54839;51.364;7.246;2023-06-14T01:28:45;17.00;94.50
68051;DHT22;54839;51.364;7.246;2023-06-14T01:31:16;17.00;94.70
68051;DHT22;54839;51.364;7.246;2023-06-14T01:33:42;17.00;94.70
68051;DHT22;54839;51.364;7.246;2023-06-14T01:36:09;16.90;94.50
68051;DHT22;54839;51.364;7.246;2023-06-14T01:38:36;16.80;95.10
68051;DHT22;54839;51.364;7.246;2023-06-14T01:41:03;16.80;95.50
68051;DHT22;54839;51.364;7.246;2023-06-14T01:43:30;16.60;95.80
68051;DHT22;54839;51.364;7.246;2023-06-14T01:45:57;16.50;96.70
68051;DHT22;54839;51.364;7.246;2023-06-14T01:48:23;16.40;96.70
68051;DHT22;54839;51.364;7.246;2023-06-14T01:50:49;16.30;97.40
68051;DHT22;54839;51.364;7.246;2023-06-14T01:53:16;16.20;97.80
68051;DHT22;54839;51.364;7.246;2023-06-14T01:55:41;16.20;98.20
68051;DHT22;54839;51.364;7.246;2023-06-14T01:58:12;16.00;97.70
68051;DHT22;54839;51.364;7.246;2023-06-14T02:00:38;16.00;98.20
68051;DHT22;54839;51.364;7.246;2023-06-14T02:03:04;15.90;98.00
68051;DHT22;54839;51.364;7.246;2023-06-14T02:05:30;16.10;98.60
68051;DHT22;54839;51.364;7.246;2023-06-14T02:07:55;16.10;99.30
68051;DHT22;54839;51.364;7.246;2023-06-14T02:10:21;16.20;99.10
68051;DHT22;54839;51.364;7.246;2023-06-14T02:12:47;16.30;98.50
68051;DHT22;54839;51.364;7.246;2023-06-14T02:15:12;16.40;98.50
68051;DHT22;54839;51.364;7.246;2023-06-14T02:17:43;16.50;98.10
68051;DHT22;54839;51.364;7.246;2023-06-14T02:20:09;16.40;98.00
68051;DHT22;54839;51.364;7.246;2023-06-14T02:22:35;16.60;97.70
68051;DHT22;54839;51.364;7.246;2023-06-14T02:25:00;16.60;97.10
68051;DHT22;54839;51.364;7.246;2023-06-14T02:27:26;16.60;97.10
68051;DHT22;54839;51.364;7.246;2023-06-14T02:29:51;16.70;97.00
68051;DHT22;54839;51.364;7.246;2023-06-14T02:32:17;16.70;96.50
68051;DHT22;54839;51.364;7.246;2023-06-14T02:34:42;16.80;96.30
68051;DHT22;54839;51.364;7.246;2023-06-14T02:37:08;16.80;96.30
68051;DHT22;54839;51.364;7.246;2023-06-14T02:39:34;16.70;96.40
68051;DHT22;54839;51.364;7.246;2023-06-14T02:42:00;16.70;96.80
68051;DHT22;54839;51.364;7.246;2023-06-14T02:44:26;16.70;96.60
68051;DHT22;54839;51.364;7.246;2023-06-14T02:46:55;16.60;96.40
68051;DHT22;54839;51.364;7.246;2023-06-14T02:49:21;16.70;96.60
68051;DHT22;54839;51.364;7.246;2023-06-14T02:51:47;16.50;96.60
68051;DHT22;54839;51.364;7.246;2023-06-14T02:54:13;16.70;96.50
68051;DHT22;54839;51.364;7.246;2023-06-14T02:56:38;16.60;96.40
68051;DHT22;54839;51.364;7.246;2023-06-14T02:59:04;16.50;96.10
68051;DHT22;54839;51.364;7.246;2023-06-14T03:01:30;16.30;96.40
68051;DHT22;54839;51.364;7.246;2023-06-14T03:03:59;16.10;96.70
68051;DHT22;54839;51.364;7.246;2023-06-14T03:06:24;15.90;97.40
68051;DHT22;54839;51.364;7.246;2023-06-14T03:08:50;15.90;99.30
68051;DHT22;54839;51.364;7.246;2023-06-14T03:11:16;16.20;99.20
68051;DHT22;54839;51.364;7.246;2023-06-14T03:13:45;15.90;99.50
68051;DHT22;54839;51.364;7.246;2023-06-14T03:16:12;15.70;99.90
68051;DHT22;54839;51.364;7.246;2023-06-14T03:18:37;15.60;99.90
68051;DHT22;54839;51.364;7.246;2023-06-14T03:21:03;15.50;99.90
68051;DHT22;54839;51.364;7.246;2023-06-14T03:23:29;15.30;99.90
68051;DHT22;54839;51.364;7.246;2023-06-14T03:25:55;15.30;99.90
68051;DHT22;54839;51.364;7.246;2023-06-14T03:28:21;15.20;99.90
68051;DHT22;54839;51.364;7.246;2023-06-14T03:30:46;15.20;99.90
68051;DHT22;54839;51.364;7.246;2023-06-14T03:33:12;15.20;99.90
68051;DHT22;54839;51.364;7.246;2023-06-14T03:35:37;15.20;99.90
68051;DHT22;54839;51.364;7.246;2023-06-14T03:38:03;15.20;99.90
68051;DHT22;54839;51.364;7.246;2023-06-14T03:40:29;15.20;99.90
68051;DHT22;54839;51.364;7.246;2023-06-14T03:42:54;15.40;99.90
68051;DHT22;54839;51.364;7.246;2023-06-14T03:45:21;15.50;99.90
68051;DHT22;54839;51.364;7.246;2023-06-14T03:47:47;15.80;99.90
68051;DHT22;54839;51.364;7.246;2023-06-14T03:50:13;15.70;99.90
68051;DHT22;54839;51.364;7.246;2023-06-14T03:52:39;15.60;99.90
68051;DHT22;54839;51.364;7.246;2023-06-14T03:55:05;15.80;99.90
68051;DHT22;54839;51.364;7.246;2023-06-14T03:57:30;15.90;99.90
68051;DHT22;54839;51.364;7.246;2023-06-14T03:59:56;15.70;99.90
68051;DHT22;54839;51.364;7.246;2023-06-14T04:02:22;15.50;99.90
68051;DHT22;54839;51.364;7.246;2023-06-14T04:04:48;15.70;99.90
68051;DHT22;54839;51.364;7.246;2023-06-14T04:07:15;15.80;99.90
68051;DHT22;54839;51.364;7.246;2023-06-14T04:09:41;16.10;99.90
68051;DHT22;54839;51.364;7.246;2023-06-14T04:12:07;16.20;99.90
68051;DHT22;54839;51.364;7.246;2023-06-14T04:14:37;16.20;99.90
68051;DHT22;54839;51.364;7.246;2023-06-14T04:17:02;16.30;99.90
68051;DHT22;54839;51.364;7.246;2023-06-14T04:19:28;16.40;99.90
68051;DHT22;54839;51.364;7.246;2023-06-14T04:21:53;16.40;99.90
68051;DHT22;54839;51.364;7.246;2023-06-14T04:24:19;16.40;99.90
68051;DHT22;54839;51.364;7.246;2023-06-14T04:26:45;16.50;99.90
68051;DHT22;54839;51.364;7.246;2023-06-14T04:29:11;16.40;99.70
68051;DHT22;54839;51.364;7.246;2023-06-14T04:31:41;16.50;99.00
68051;DHT22;54839;51.364;7.246;2023-06-14T04:34:07;16.60;98.70
68051;DHT22;54839;51.364;7.246;2023-06-14T04:36:33;16.60;98.00
68051;DHT22;54839;51.364;7.246;2023-06-14T04:39:00;16.80;97.70
68051;DHT22;54839;51.364;7.246;2023-06-14T04:41:26;16.80;97.50
68051;DHT22;54839;51.364;7.246;2023-06-14T04:43:59;16.90;96.90
68051;DHT22;54839;51.364;7.246;2023-06-14T04:46:29;16.80;96.60
68051;DHT22;54839;51.364;7.246;2023-06-14T04:48:57;16.90;96.70
68051;DHT22;54839;51.364;7.246;2023-06-14T04:51:27;16.80;96.70
68051;DHT22;54839;51.364;7.246;2023-06-14T04:53:57;16.90;96.90
68051;DHT22;54839;51.364;7.246;2023-06-14T04:56:24;16.90;96.80
68051;DHT22;54839;51.364;7.246;2023-06-14T04:58:50;17.00;96.40
68051;DHT22;54839;51.364;7.246;2023-06-14T05:01:16;17.10;96.20
68051;DHT22;54839;51.364;7.246;2023-06-14T05:03:41;17.20;96.00
68051;DHT22;54839;51.364;7.246;2023-06-14T05:06:10;17.10;95.90
68051;DHT22;54839;51.364;7.246;2023-06-14T05:08:36;17.10;95.80
68051;DHT22;54839;51.364;7.246;2023-06-14T05:11:02;17.20;95.50
68051;DHT22;54839;51.364;7.246;2023-06-14T05:13:27;17.40;95.60
68051;DHT22;54839;51.364;7.246;2023-06-14T05:15:53;17.50;95.30
68051;DHT22;54839;51.364;7.246;2023-06-14T05:18:19;17.50;95.20
68051;DHT22;54839;51.364;7.246;2023-06-14T05:20:45;17.50;95.30
68051;DHT22;54839;51.364;7.246;2023-06-14T05:23:11;17.60;95.30
68051;DHT22;54839;51.364;7.246;2023-06-14T05:25:41;17.60;95.30
68051;DHT22;54839;51.364;7.246;2023-06-14T05:28:07;17.70;95.10
68051;DHT22;54839;51.364;7.246;2023-06-14T05:30:32;17.90;94.80
68051;DHT22;54839;51.364;7.246;2023-06-14T05:32:58;17.90;94.80
68051;DHT22;54839;51.364;7.246;2023-06-14T05:35:24;17.90;94.40
68051;DHT22;54839;51.364;7.246;2023-06-14T05:37:52;18.10;94.50
68051;DHT22;54839;51.364;7.246;2023-06-14T05:40:18;18.10;94.20
68051;DHT22;54839;51.364;7.246;2023-06-14T05:42:44;18.10;93.90
68051;DHT22;54839;51.364;7.246;2023-06-14T05:45:09;18.20;93.90
68051;DHT22;54839;51.364;7.246;2023-06-14T05:47:35;18.30;94.10
68051;DHT22;54839;51.364;7.246;2023-06-14T05:50:00;18.40;94.10
68051;DHT22;54839;51.364;7.246;2023-06-14T05:52:26;18.40;93.70
68051;DHT22;54839;51.364;7.246;2023-06-14T05:54:52;18.50;93.40
68051;DHT22;54839;51.364;7.246;2023-06-14T05:57:17;18.50;93.10
68051;DHT22;54839;51.364;7.246;2023-06-14T05:59:42;18.50;93.00
68051;DHT22;54839;51.364;7.246;2023-06-14T06:02:08;18.50;93.30
68051;DHT22;54839;51.364;7.246;2023-06-14T06:04:33;18.60;93.10
68051;DHT22;54839;51.364;7.246;2023-06-14T06:06:59;18.60;93.10
68051;DHT22;54839;51.364;7.246;2023-06-14T06:09:25;18.60;93.20
68051;DHT22;54839;51.364;7.246;2023-06-14T06:11:50;18.70;93.10
68051;DHT22;54839;51.364;7.246;2023-06-14T06:14:16;18.80;93.00
68051;DHT22;54839;51.364;7.246;2023-06-14T06:16:41;18.90;92.90
68051;DHT22;54839;51.364;7.246;2023-06-14T06:19:07;18.90;92.70
68051;DHT22;54839;51.364;7.246;2023-06-14T06:21:32;18.90;92.30
68051;DHT22;54839;51.364;7.246;2023-06-14T06:23:58;18.90;92.00
68051;DHT22;54839;51.364;7.246;2023-06-14T06:26:23;19.00;91.90
68051;DHT22;54839;51.364;7.246;2023-06-14T06:28:49;19.00;91.90
68051;DHT22;54839;51.364;7.246;2023-06-14T06:31:15;19.10;91.90
68051;DHT22;54839;51.364;7.246;2023-06-14T06:33:40;19.10;91.60
68051;DHT22;54839;51.364;7.246;2023-06-14T06:36:06;19.20;91.50
68051;DHT22;54839;51.364;7.246;2023-06-14T06:38:31;19.20;91.20
68051;DHT22;54839;51.364;7.246;2023-06-14T06:40:57;19.30;91.00
68051;DHT22;54839;51.364;7.246;2023-06-14T06:43:22;19.30;91.20
68051;DHT22;54839;51.364;7.246;2023-06-14T06:45:48;19.50;90.90
68051;DHT22;54839;51.364;7.246;2023-06-14T06:48:14;19.40;90.40
68051;DHT22;54839;51.364;7.246;2023-06-14T06:50:39;19.40;90.30
68051;DHT22;54839;51.364;7.246;2023-06-14T06:53:05;19.50;90.10
68051;DHT22;54839;51.364;7.246;2023-06-14T06:55:32;19.60;90.20
68051;DHT22;54839;51.364;7.246;2023-06-14T06:57:57;19.70;90.00
68051;DHT22;54839;51.364;7.246;2023-06-14T07:00:23;19.80;90.20
68051;DHT22;54839;51.364;7.246;2023-06-14T07:02:49;19.90;89.90
68051;DHT22;54839;51.364;7.246;2023-06-14T07:05:14;19.80;88.70
68051;DHT22;54839;51.364;7.246;2023-06-14T07:07:40;19.80;88.70
68051;DHT22;54839;51.364;7.246;2023-06-14T07:10:06;19.80;88.60
68051;DHT22;54839;51.364;7.246;2023-06-14T07:12:32;19.90;88.60
68051;DHT22;54839;51.364;7.246;2023-06-14T07:14:59;20.00;87.70
68051;DHT22;54839;51.364;7.246;2023-06-14T07:17:25;20.10;86.50
68051;DHT22;54839;51.364;7.246;2023-06-14T07:19:51;20.10;87.10
68051;DHT22;54839;51.364;7.246;2023-06-14T07:22:16;20.20;86.30
68051;DHT22;54839;51.364;7.246;2023-06-14T07:24:42;20.10;86.40
68051;DHT22;54839;51.364;7.246;2023-06-14T07:27:08;20.10;87.00
68051;DHT22;54839;51.364;7.246;2023-06-14T07:29:34;20.20;85.90
68051;DHT22;54839;51.364;7.246;2023-06-14T07:31:59;20.30;86.10
68051;DHT22;54839;51.364;7.246;2023-06-14T07:34:25;20.30;86.20
68051;DHT22;54839;51.364;7.246;2023-06-14T07:36:51;20.20;85.60
68051;DHT22;54839;51.364;7.246;2023-06-14T07:39:17;20.20;85.80
68051;DHT22;54839;51.364;7.246;2023-06-14T07:41:42;20.20;86.10
68051;DHT22;54839;51.364;7.246;2023-06-14T07:44:08;20.30;86.80
68051;DHT22;54839;51.364;7.246;2023-06-14T07:46:33;20.40;86.40
68051;DHT22;54839;51.364;7.246;2023-06-14T07:48:59;20.50;86.30
68051;DHT22;54839;51.364;7.246;2023-06-14T07:51:25;20.60;85.80
68051;DHT22;54839;51.364;7.246;2023-06-14T07:53:50;20.50;85.60
68051;DHT22;54839;51.364;7.246;2023-06-14T07:56:16;20.60;86.00
68051;DHT22;54839;51.364;7.246;2023-06-14T07:58:42;20.60;85.20
68051;DHT22;54839;51.364;7.246;2023-06-14T08:01:08;20.60;85.80
68051;DHT22;54839;51.364;7.246;2023-06-14T08:03:33;20.50;85.70
68051;DHT22;54839;51.364;7.246;2023-06-14T08:06:00;20.60;86.20
68051;DHT22;54839;51.364;7.246;2023-06-14T08:08:26;20.70;86.20
68051;DHT22;54839;51.364;7.246;2023-06-14T08:10:51;20.70;86.10
68051;DHT22;54839;51.364;7.246;2023-06-14T08:13:17;20.70;86.40
68051;DHT22;54839;51.364;7.246;2023-06-14T08:15:43;20.60;86.40
68051;DHT22;54839;51.364;7.246;2023-06-14T08:18:08;20.70;86.40
68051;DHT22;54839;51.364;7.246;2023-06-14T08:20:34;20.80;87.00
68051;DHT22;54839;51.364;7.246;2023-06-14T08:23:02;20.60;86.50
68051;DHT22;54839;51.364;7.246;2023-06-14T08:25:27;20.60;86.70
68051;DHT22;54839;51.364;7.246;2023-06-14T08:27:53;20.70;85.50
68051;DHT22;54839;51.364;7.246;2023-06-14T08:30:18;20.70;85.00
68051;DHT22;54839;51.364;7.246;2023-06-14T08:32:44;20.70;83.20
68051;DHT22;54839;51.364;7.246;2023-06-14T08:35:10;20.50;80.80
68051;DHT22;54839;51.364;7.246;2023-06-14T08:37:42;20.50;80.70
68051;DHT22;54839;51.364;7.246;2023-06-14T08:40:28;20.50;80.80
68051;DHT22;54839;51.364;7.246;2023-06-14T08:42:55;20.50;81.00
68051;DHT22;54839;51.364;7.246;2023-06-14T08:45:21;20.60;79.80
68051;DHT22;54839;51.364;7.246;2023-06-14T08:47:47;20.40;78.60
68051;DHT22;54839;51.364;7.246;2023-06-14T08:50:24;20.30;78.30
68051;DHT22;54839;51.364;7.246;2023-06-14T08:52:57;20.40;78.10
68051;DHT22;54839;51.364;7.246;2023-06-14T08:55:25;20.30;79.10
68051;DHT22;54839;51.364;7.246;2023-06-14T08:57:54;20.50;79.20
68051;DHT22;54839;51.364;7.246;2023-06-14T09:00:20;20.60;78.20
68051;DHT22;54839;51.364;7.246;2023-06-14T09:02:46;20.60;78.60
68051;DHT22;54839;51.364;7.246;2023-06-14T09:05:12;20.60;78.60
68051;DHT22;54839;51.364;7.246;2023-06-14T09:07:40;20.60;78.80
68051;DHT22;54839;51.364;7.246;2023-06-14T09:10:08;20.50;78.80
68051;DHT22;54839;51.364;7.246;2023-06-14T09:12:34;20.70;79.90
68051;DHT22;54839;51.364;7.246;2023-06-14T09:14:59;20.80;79.00
68051;DHT22;54839;51.364;7.246;2023-06-14T09:17:25;20.90;78.70
68051;DHT22;54839;51.364;7.246;2023-06-14T09:19:51;21.00;77.80
68051;DHT22;54839;51.364;7.246;2023-06-14T09:22:16;20.90;76.50
68051;DHT22;54839;51.364;7.246;2023-06-14T09:24:42;20.90;76.40
68051;DHT22;54839;51.364;7.246;2023-06-14T09:27:08;20.90;75.90
68051;DHT22;54839;51.364;7.246;2023-06-14T09:29:33;20.80;74.90
68051;DHT22;54839;51.364;7.246;2023-06-14T09:31:59;20.70;75.00
68051;DHT22;54839;51.364;7.246;2023-06-14T09:34:25;20.90;75.40
68051;DHT22;54839;51.364;7.246;2023-06-14T09:36:50;20.90;75.60
68051;DHT22;54839;51.364;7.246;2023-06-14T09:39:17;20.90;75.60
68051;DHT22;54839;51.364;7.246;2023-06-14T09:41:44;21.00;76.40
68051;DHT22;54839;51.364;7.246;2023-06-14T09:44:10;21.00;76.00
68051;DHT22;54839;51.364;7.246;2023-06-14T09:46:39;21.10;76.70
68051;DHT22;54839;51.364;7.246;2023-06-14T09:49:05;21.00;76.90
68051;DHT22;54839;51.364;7.246;2023-06-14T09:51:31;21.10;77.30
68051;DHT22;54839;51.364;7.246;2023-06-14T09:54:02;21.20;76.80
68051;DHT22;54839;51.364;7.246;2023-06-14T09:56:32;21.20;77.90
68051;DHT22;54839;51.364;7.246;2023-06-14T09:58:59;21.30;77.80
68051;DHT22;54839;51.364;7.246;2023-06-14T10:01:30;21.30;78.10
68051;DHT22;54839;51.364;7.246;2023-06-14T10:04:02;21.40;78.30
68051;DHT22;54839;51.364;7.246;2023-06-14T10:06:29;21.40;78.10
68051;DHT22;54839;51.364;7.246;2023-06-14T10:08:57;21.50;78.50
68051;DHT22;54839;51.364;7.246;2023-06-14T10:11:26;21.60;78.50
68051;DHT22;54839;51.364;7.246;2023-06-14T10:13:52;21.70;78.90
68051;DHT22;54839;51.364;7.246;2023-06-14T10:16:27;21.70;78.00
68051;DHT22;54839;51.364;7.246;2023-06-14T10:21:49;21.60;78.80
68051;DHT22;54839;51.364;7.246;2023-06-14T10:24:20;21.70;78.40
68051;DHT22;54839;51.364;7.246;2023-06-14T10:26:52;21.60;78.50
68051;DHT22;54839;51.364;7.246;2023-06-14T10:29:17;21.60;77.90
68051;DHT22;54839;51.364;7.246;2023-06-14T10:31:45;21.70;77.60
68051;DHT22;54839;51.364;7.246;2023-06-14T10:34:12;21.70;76.70
68051;DHT22;54839;51.364;7.246;2023-06-14T10:36:41;21.80;77.10
68051;DHT22;54839;51.364;7.246;2023-06-14T10:39:17;21.90;77.00
68051;DHT22;54839;51.364;7.246;2023-06-14T10:41:52;22.10;77.30
68051;DHT22;54839;51.364;7.246;2023-06-14T10:46:47;21.90;76.70
68051;DHT22;54839;51.364;7.246;2023-06-14T10:49:16;21.80;76.40
68051;DHT22;54839;51.364;7.246;2023-06-14T10:51:51;21.90;76.80
68051;DHT22;54839;51.364;7.246;2023-06-14T10:54:17;21.80;77.60
68051;DHT22;54839;51.364;7.246;2023-06-14T10:56:52;21.90;78.00
68051;DHT22;54839;51.364;7.246;2023-06-14T10:59:19;22.00;78.30
68051;DHT22;54839;51.364;7.246;2023-06-14T11:02:20;22.00;78.50
68051;DHT22;54839;51.364;7.246;2023-06-14T11:04:51;21.90;78.60
68051;DHT22;54839;51.364;7.246;2023-06-14T11:07:35;22.00;77.90
68051;DHT22;54839;51.364;7.246;2023-06-14T11:10:38;21.80;77.30
68051;DHT22;54839;51.364;7.246;2023-06-14T11:13:04;22.10;79.00
68051;DHT22;54839;51.364;7.246;2023-06-14T11:15:32;22.20;78.20
68051;DHT22;54839;51.364;7.246;2023-06-14T11:18:00;22.30;78.00
68051;DHT22;54839;51.364;7.246;2023-06-14T11:20:27;22.30;77.50
68051;DHT22;54839;51.364;7.246;2023-06-14T11:22:53;22.40;77.40
68051;DHT22;54839;51.364;7.246;2023-06-14T11:25:19;22.20;77.10
68051;DHT22;54839;51.364;7.246;2023-06-14T11:27:45;22.40;78.50
68051;DHT22;54839;51.364;7.246;2023-06-14T11:30:12;22.30;77.50
68051;DHT22;54839;51.364;7.246;2023-06-14T11:32:39;22.50;77.00
68051;DHT22;54839;51.364;7.246;2023-06-14T11:35:05;22.60;78.30
68051;DHT22;54839;51.364;7.246;2023-06-14T11:37:31;22.40;77.30
68051;DHT22;54839;51.364;7.246;2023-06-14T11:40:01;22.50;77.10
68051;DHT22;54839;51.364;7.246;2023-06-14T11:42:28;22.40;78.10
68051;DHT22;54839;51.364;7.246;2023-06-14T11:44:55;22.60;78.20
68051;DHT22;54839;51.364;7.246;2023-06-14T11:47:22;22.70;77.40
68051;DHT22;54839;51.364;7.246;2023-06-14T11:49:47;22.70;77.90
68051;DHT22;54839;51.364;7.246;2023-06-14T11:52:13;22.80;78.20
68051;DHT22;54839;51.364;7.246;2023-06-14T11:54:39;22.90;77.80
68051;DHT22;54839;51.364;7.246;2023-06-14T11:57:06;22.90;77.30
68051;DHT22;54839;51.364;7.246;2023-06-14T11:59:38;23.00;77.30
68051;DHT22;54839;51.364;7.246;2023-06-14T12:02:04;23.10;76.90
68051;DHT22;54839;51.364;7.246;2023-06-14T12:04:29;23.10;77.40
68051;DHT22;54839;51.364;7.246;2023-06-14T12:06:55;23.10;77.60
68051;DHT22;54839;51.364;7.246;2023-06-14T12:09:25;23.00;76.00
68051;DHT22;54839;51.364;7.246;2023-06-14T12:12:00;23.10;75.20
68051;DHT22;54839;51.364;7.246;2023-06-14T12:14:30;23.10;75.40
68051;DHT22;54839;51.364;7.246;2023-06-14T12:17:05;23.10;75.90
68051;DHT22;54839;51.364;7.246;2023-06-14T12:19:41;23.40;76.90
68051;DHT22;54839;51.364;7.246;2023-06-14T12:22:10;23.30;76.80
68051;DHT22;54839;51.364;7.246;2023-06-14T12:24:35;23.60;77.50
68051;DHT22;54839;51.364;7.246;2023-06-14T12:27:01;23.80;75.40
68051;DHT22;54839;51.364;7.246;2023-06-14T12:29:28;23.70;75.10
68051;DHT22;54839;51.364;7.246;2023-06-14T12:31:54;23.70;75.90
68051;DHT22;54839;51.364;7.246;2023-06-14T12:34:25;23.90;75.80
68051;DHT22;54839;51.364;7.246;2023-06-14T12:36:55;23.80;74.50
68051;DHT22;54839;51.364;7.246;2023-06-14T12:39:21;25.90;72.50
68051;DHT22;54839;51.364;7.246;2023-06-14T12:41:48;27.90;70.50
68051;DHT22;54839;51.364;7.246;2023-06-14T12:44:15;29.90;65.70
68051;DHT22;54839;51.364;7.246;2023-06-14T12:46:42;30.60;64.00
68051;DHT22;54839;51.364;7.246;2023-06-14T12:49:09;30.50;61.60
68051;DHT22;54839;51.364;7.246;2023-06-14T12:51:36;31.10;62.00
68051;DHT22;54839;51.364;7.246;2023-06-14T12:54:01;31.10;60.50
68051;DHT22;54839;51.364;7.246;2023-06-14T12:56:27;32.20;60.00
68051;DHT22;54839;51.364;7.246;2023-06-14T12:58:53;31.90;58.80
68051;DHT22;54839;51.364;7.246;2023-06-14T13:01:19;32.70;58.10
68051;DHT22;54839;51.364;7.246;2023-06-14T13:03:48;33.80;56.00
68051;DHT22;54839;51.364;7.246;2023-06-14T13:06:16;33.30;56.50
68051;DHT22;54839;51.364;7.246;2023-06-14T13:08:41;34.00;54.60
68051;DHT22;54839;51.364;7.246;2023-06-14T13:11:07;33.00;54.80
68051;DHT22;54839;51.364;7.246;2023-06-14T13:13:32;34.40;54.30
68051;DHT22;54839;51.364;7.246;2023-06-14T13:15:58;33.70;53.20
68051;DHT22;54839;51.364;7.246;2023-06-14T13:18:23;33.70;53.20
68051;DHT22;54839;51.364;7.246;2023-06-14T13:20:49;33.20;53.60
68051;DHT22;54839;51.364;7.246;2023-06-14T13:23:15;34.10;53.60
68051;DHT22;54839;51.364;7.246;2023-06-14T13:25:41;33.30;51.80
68051;DHT22;54839;51.364;7.246;2023-06-14T13:28:06;34.00;52.30
68051;DHT22;54839;51.364;7.246;2023-06-14T13:30:33;33.60;53.20
68051;DHT22;54839;51.364;7.246;2023-06-14T13:32:58;32.70;52.70
68051;DHT22;54839;51.364;7.246;2023-06-14T13:35:24;33.30;52.20
68051;DHT22;54839;51.364;7.246;2023-06-14T13:37:51;33.30;52.10
68051;DHT22;54839;51.364;7.246;2023-06-14T13:40:17;33.40;52.20
68051;DHT22;54839;51.364;7.246;2023-06-14T13:42:42;34.40;51.20
68051;DHT22;54839;51.364;7.246;2023-06-14T13:45:09;34.60;50.50
68051;DHT22;54839;51.364;7.246;2023-06-14T13:47:35;35.20;50.10
68051;DHT22;54839;51.364;7.246;2023-06-14T13:50:02;35.20;50.10
68051;DHT22;54839;51.364;7.246;2023-06-14T13:52:28;34.60;50.30
68051;DHT22;54839;51.364;7.246;2023-06-14T13:54:53;35.20;49.60
68051;DHT22;54839;51.364;7.246;2023-06-14T13:57:19;34.80;49.60
68051;DHT22;54839;51.364;7.246;2023-06-14T13:59:45;34.60;49.50
68051;DHT22;54839;51.364;7.246;2023-06-14T14:02:11;35.50;48.80
68051;DHT22;54839;51.364;7.246;2023-06-14T14:04:37;34.40;48.90
68051;DHT22;54839;51.364;7.246;2023-06-14T14:07:07;35.30;48.50
68051;DHT22;54839;51.364;7.246;2023-06-14T14:09:33;35.80;47.90
68051;DHT22;54839;51.364;7.246;2023-06-14T14:12:03;36.70;47.30
68051;DHT22;54839;51.364;7.246;2023-06-14T14:14:31;37.10;47.10
68051;DHT22;54839;51.364;7.246;2023-06-14T14:16:57;37.50;46.30
68051;DHT22;54839;51.364;7.246;2023-06-14T14:19:23;37.00;46.90
68051;DHT22;54839;51.364;7.246;2023-06-14T14:21:49;37.10;46.20
68051;DHT22;54839;51.364;7.246;2023-06-14T14:24:14;36.20;46.30
68051;DHT22;54839;51.364;7.246;2023-06-14T14:26:41;36.40;46.20
68051;DHT22;54839;51.364;7.246;2023-06-14T14:29:06;36.80;45.80
68051;DHT22;54839;51.364;7.246;2023-06-14T14:31:32;37.10;45.90
68051;DHT22;54839;51.364;7.246;2023-06-14T14:33:57;37.30;44.70
68051;DHT22;54839;51.364;7.246;2023-06-14T14:36:23;37.30;45.30
68051;DHT22;54839;51.364;7.246;2023-06-14T14:38:49;36.80;45.30
68051;DHT22;54839;51.364;7.246;2023-06-14T14:41:17;35.80;45.30
68051;DHT22;54839;51.364;7.246;2023-06-14T14:43:42;35.70;45.20
68051;DHT22;54839;51.364;7.246;2023-06-14T14:46:08;36.20;45.40
68051;DHT22;54839;51.364;7.246;2023-06-14T14:48:33;36.10;44.50
68051;DHT22;54839;51.364;7.246;2023-06-14T14:50:59;37.30;44.70
68051;DHT22;54839;51.364;7.246;2023-06-14T14:53:24;36.70;43.90
68051;DHT22;54839;51.364;7.246;2023-06-14T14:55:50;35.60;44.20
68051;DHT22;54839;51.364;7.246;2023-06-14T14:58:15;35.40;45.50
68051;DHT22;54839;51.364;7.246;2023-06-14T15:00:46;36.30;44.10
68051;DHT22;54839;51.364;7.246;2023-06-14T15:03:12;35.00;44.30
68051;DHT22;54839;51.364;7.246;2023-06-14T15:05:38;36.20;43.60
68051;DHT22;54839;51.364;7.246;2023-06-14T15:08:04;37.10;44.50
68051;DHT22;54839;51.364;7.246;2023-06-14T15:10:36;37.20;44.10
68051;DHT22;54839;51.364;7.246;2023-06-14T15:13:01;36.30;43.70
68051;DHT22;54839;51.364;7.246;2023-06-14T15:15:27;36.40;43.50
68051;DHT22;54839;51.364;7.246;2023-06-14T15:17:52;36.40;44.40
68051;DHT22;54839;51.364;7.246;2023-06-14T15:20:18;36.90;44.10
68051;DHT22;54839;51.364;7.246;2023-06-14T15:22:43;37.60;43.50
68051;DHT22;54839;51.364;7.246;2023-06-14T15:25:09;36.50;42.70
68051;DHT22;54839;51.364;7.246;2023-06-14T15:27:35;36.70;43.70
68051;DHT22;54839;51.364;7.246;2023-06-14T15:30:01;37.10;43.80
68051;DHT22;54839;51.364;7.246;2023-06-14T15:32:27;36.70;43.10
68051;DHT22;54839;51.364;7.246;2023-06-14T15:34:52;35.30;43.90